Time;durP1;ratioP1;P1;durP2;ratioP2;P2;SDS_P1;SDS_P2;PMS_P1;PMS_P2;Temp;Humidity;BMP_temperature;BMP_pressure;BME280_temperature;BME280_humidity;BME280_pressure;Samples;Min_cycle;Max_cycle;Signal;HPM_P1;HPM_P2
2023/04/13 00:00:22;;;;;;;;;;;;;;;7.08;70.87;99550.13;5063731;28;1990;-78
2023/04/13 00:02:54;;;;;;;;;;;;;;;7.08;71.27;99552.81;5083923;28;2037;-78
2023/04/13 00:05:21;;;;;;;;;;;;;;;7.07;71.13;99546.63;5072654;28;1637;-79
2023/04/13 00:07:48;;;;;;;;;;;;;;;7.07;70.99;99548.50;5067034;28;1925;-77
2023/04/13 00:10:17;;;;;;;;;;;;;;;7.07;71.28;99545.81;5071320;28;1616;-78
2023/04/13 00:12:46;;;;;;;;;;;;;;;7.07;70.96;99549.31;5046220;28;1878;-77
2023/04/13 00:15:13;;;;;;;;;;;;;;;7.05;71.26;99554.88;5043396;28;1804;-78
2023/04/13 00:17:39;;;;;;;;;;;;;;;7.06;71.04;99553.03;5075662;28;1995;-78
2023/04/13 00:20:10;;;;;;;;;;;;;;;7.07;71.22;99548.50;5064647;28;2006;-78
2023/04/13 00:22:37;;;;;;;;;;;;;;;7.07;71.12;99551.19;5066187;28;1851;-77
2023/04/13 00:25:04;;;;;;;;;;;;;;;7.06;71.11;99542.34;5069415;28;1804;-78
2023/04/13 00:27:30;;;;;;;;;;;;;;;7.05;70.88;99535.31;5061278;28;1958;-76
2023/04/13 00:29:57;;;;;;;;;;;;;;;7.05;70.75;99544.16;5077711;28;1844;-78
2023/04/13 00:32:24;;;;;;;;;;;;;;;7.05;70.88;99541.50;5056831;28;1905;-77
2023/04/13 00:34:50;;;;;;;;;;;;;;;7.05;70.75;99546.03;5072596;28;1657;-77
2023/04/13 00:37:17;;;;;;;;;;;;;;;7.04;71.01;99534.50;5063707;28;5000;-77
2023/04/13 00:39:45;;;;;;;;;;;;;;;7.04;71.02;99531.03;5067797;28;3108;-78
2023/04/13 00:42:11;;;;;;;;;;;;;;;7.04;71.11;99537.19;5049435;28;1581;-77
2023/04/13 00:44:38;;;;;;;;;;;;;;;7.03;71.06;99527.53;5074390;28;3215;-77
2023/04/13 00:47:04;;;;;;;;;;;;;;;7.04;70.79;99534.50;5070046;28;2139;-77
2023/04/13 00:49:32;;;;;;;;;;;;;;;7.03;70.79;99530.22;5058123;28;1767;-78
2023/04/13 00:51:58;;;;;;;;;;;;;;;7.03;70.82;99530.22;5053875;28;1651;-76
2023/04/13 00:54:25;;;;;;;;;;;;;;;7.03;70.82;99518.69;5072183;28;3992;-77
2023/04/13 00:56:53;;;;;;;;;;;;;;;7.03;70.96;99524.84;5079043;28;2034;-78
2023/04/13 00:59:19;;;;;;;;;;;;;;;7.03;70.95;99526.72;5068090;28;1999;-78
2023/04/13 01:01:49;;;;;;;;;;;;;;;7.02;71.05;99530.41;5049126;28;1902;-78
2023/04/13 01:04:17;;;;;;;;;;;;;;;7.01;70.92;99540.31;5072749;28;1715;-78
2023/04/13 01:06:44;;;;;;;;;;;;;;;7.03;71.13;99540.09;5068000;28;1785;-78
2023/04/13 01:09:13;;;;;;;;;;;;;;;7.02;71.05;99530.41;5069043;28;1863;-80
2023/04/13 01:11:40;;;;;;;;;;;;;;;7.02;71.12;99535.78;5052202;28;1641;-77
2023/04/13 01:14:06;;;;;;;;;;;;;;;7.02;70.83;99533.09;5067257;28;2064;-77
2023/04/13 01:16:33;;;;;;;;;;;;;;;7.01;70.78;99532.28;5067971;28;1975;-79
2023/04/13 01:19:00;;;;;;;;;;;;;;;7.02;70.71;99536.59;5065599;28;1998;-77
2023/04/13 01:21:26;;;;;;;;;;;;;;;7.02;70.67;99541.13;5069533;28;1661;-75
2023/04/13 01:23:53;;;;;;;;;;;;;;;7.01;70.73;99536.81;5067086;28;2073;-75
2023/04/13 01:26:21;;;;;;;;;;;;;;;7.00;70.78;99530.66;5070312;28;1731;-78
2023/04/13 01:28:48;;;;;;;;;;;;;;;7.01;70.99;99520.75;5073530;28;1701;-77
2023/04/13 01:31:15;;;;;;;;;;;;;;;7.00;70.82;99525.28;5074489;28;1729;-77
2023/04/13 01:33:42;;;;;;;;;;;;;;;7.01;70.81;99531.47;5072823;28;1693;-78
2023/04/13 01:36:09;;;;;;;;;;;;;;;7.00;70.95;99522.63;5070715;28;1951;-78
2023/04/13 01:38:35;;;;;;;;;;;;;;;7.00;71.00;99521.78;5052956;28;2008;-76
2023/04/13 01:41:02;;;;;;;;;;;;;;;7.00;70.65;99527.13;5068500;28;2135;-75
2023/04/13 01:43:29;;;;;;;;;;;;;;;7.00;70.88;99537.84;5070049;28;4747;-77
2023/04/13 01:45:56;;;;;;;;;;;;;;;7.00;70.88;99541.34;5067221;28;3595;-78
2023/04/13 01:48:22;;;;;;;;;;;;;;;6.99;70.71;99539.69;5053310;28;3152;-79
2023/04/13 01:50:49;;;;;;;;;;;;;;;6.99;70.61;99539.69;5073135;28;1595;-76
2023/04/13 01:53:16;;;;;;;;;;;;;;;7.00;70.84;99544.03;5069582;28;2112;-79
2023/04/13 01:55:42;;;;;;;;;;;;;;;7.00;70.64;99545.88;5046224;28;2002;-76
2023/04/13 01:58:09;;;;;;;;;;;;;;;6.99;70.63;99544.25;5079882;28;1976;-80
2023/04/13 02:00:36;;;;;;;;;;;;;;;6.99;71.02;99546.91;5068206;28;4017;-77
2023/04/13 02:03:04;;;;;;;;;;;;;;;6.97;70.81;99539.13;5067478;28;2073;-77
2023/04/13 02:05:30;;;;;;;;;;;;;;;6.99;70.93;99545.06;5072028;28;1946;-77
2023/04/13 02:07:57;;;;;;;;;;;;;;;6.98;70.53;99537.25;5075762;28;2425;-77
2023/04/13 02:10:23;;;;;;;;;;;;;;;6.97;70.94;99528.41;5080800;28;2421;-77
2023/04/13 02:12:50;;;;;;;;;;;;;;;6.97;70.85;99527.56;5055937;28;1661;-77
2023/04/13 02:15:17;;;;;;;;;;;;;;;6.97;70.58;99524.91;5064939;28;1982;-79
2023/04/13 02:17:43;;;;;;;;;;;;;;;6.98;70.65;99547.97;5066913;28;2068;-77
2023/04/13 02:20:11;;;;;;;;;;;;;;;6.98;70.97;99539.94;5058042;28;1678;-76
2023/04/13 02:22:38;;;;;;;;;;;;;;;6.98;70.68;99530.03;5067862;28;1718;-79
2023/04/13 02:25:05;;;;;;;;;;;;;;;6.97;70.88;99535.59;5050749;28;1907;-80
2023/04/13 02:27:31;;;;;;;;;;;;;;;6.97;70.79;99539.13;5079468;28;1671;-77
2023/04/13 02:29:58;;;;;;;;;;;;;;;6.96;70.46;99542.81;5070022;28;1625;-78
2023/04/13 02:32:24;;;;;;;;;;;;;;;6.97;70.65;99544.47;5074092;28;2010;-78
2023/04/13 02:34:52;;;;;;;;;;;;;;;6.96;70.89;99547.38;5067734;28;2015;-79
2023/04/13 02:37:19;;;;;;;;;;;;;;;6.97;70.82;99554.34;5056899;28;1946;-78
2023/04/13 02:39:46;;;;;;;;;;;;;;;6.96;70.85;99545.50;5062094;28;1982;-78
2023/04/13 02:42:12;;;;;;;;;;;;;;;6.96;70.94;99542.00;5067753;28;3941;-79
2023/04/13 02:44:39;;;;;;;;;;;;;;;6.96;70.81;99536.66;5069712;28;4093;-79
2023/04/13 02:47:06;;;;;;;;;;;;;;;6.95;70.84;99519.78;5068579;28;2116;-78
2023/04/13 02:49:32;;;;;;;;;;;;;;;6.96;70.81;99523.28;5069095;28;3259;-78
2023/04/13 02:51:59;;;;;;;;;;;;;;;6.95;70.86;99522.47;5070804;28;2038;-78
2023/04/13 02:54:26;;;;;;;;;;;;;;;6.96;70.75;99528.63;5049832;28;1866;-78
2023/04/13 02:56:52;;;;;;;;;;;;;;;6.95;70.66;99516.28;5073794;28;1964;-78
2023/04/13 02:59:19;;;;;;;;;;;;;;;6.94;70.64;99512.78;5073215;28;1715;-79
2023/04/13 03:01:46;;;;;;;;;;;;;;;6.94;70.78;99509.28;5066728;28;3947;-79
2023/04/13 03:04:13;;;;;;;;;;;;;;;6.94;70.69;99514.63;5049244;28;1841;-78
2023/04/13 03:06:41;;;;;;;;;;;;;;;6.94;70.51;99510.13;5073165;28;1718;-77
2023/04/13 03:09:08;;;;;;;;;;;;;;;6.94;70.49;99511.94;5050029;28;1989;-78
2023/04/13 03:11:34;;;;;;;;;;;;;;;6.94;70.48;99506.59;5069215;28;2049;-79
2023/04/13 03:14:01;;;;;;;;;;;;;;;6.95;70.85;99508.25;5051042;28;1723;-78
2023/04/13 03:16:28;;;;;;;;;;;;;;;6.93;70.45;99496.94;5063646;28;1824;-76
2023/04/13 03:18:54;;;;;;;;;;;;;;;6.92;70.46;99506.03;5070417;28;1902;-79
2023/04/13 03:21:21;;;;;;;;;;;;;;;6.93;70.80;99503.09;5066884;28;1687;-78
2023/04/13 03:23:47;;;;;;;;;;;;;;;6.92;70.81;99503.34;5072297;28;2082;-80
2023/04/13 03:26:14;;;;;;;;;;;;;;;6.92;70.46;99503.34;5079673;28;1715;-78
2023/04/13 03:28:41;;;;;;;;;;;;;;;6.91;70.67;99497.19;5074301;28;1950;-79
2023/04/13 03:31:07;;;;;;;;;;;;;;;6.92;70.83;99492.63;5052991;28;2114;-78
2023/04/13 03:33:34;;;;;;;;;;;;;;;6.92;70.77;99495.31;5070666;28;1906;-77
2023/04/13 03:36:00;;;;;;;;;;;;;;;6.91;70.69;99490.97;5066113;28;1644;-78
2023/04/13 03:38:27;;;;;;;;;;;;;;;6.92;70.70;99495.31;5067895;28;2077;-80
2023/04/13 03:40:53;;;;;;;;;;;;;;;6.90;70.72;99500.06;5048901;28;1886;-76
2023/04/13 03:43:20;;;;;;;;;;;;;;;6.91;70.76;99501.69;5053663;28;1729;-78
2023/04/13 03:45:46;;;;;;;;;;;;;;;6.91;70.48;99499.00;5064694;28;2242;-75
2023/04/13 03:48:13;;;;;;;;;;;;;;;6.90;70.40;99500.88;5069250;28;1769;-77
2023/04/13 03:50:39;;;;;;;;;;;;;;;6.91;70.81;99499.00;5049583;28;4718;-77
2023/04/13 03:53:06;;;;;;;;;;;;;;;6.90;70.68;99506.22;5070567;28;3916;-76
2023/04/13 03:55:32;;;;;;;;;;;;;;;6.90;70.58;99510.78;5056032;28;1677;-75
2023/04/13 03:58:00;;;;;;;;;;;;;;;6.90;70.51;99513.44;5078610;28;3219;-77
2023/04/13 04:00:27;;;;;;;;;;;;;;;6.89;70.59;99523.34;5066382;28;2022;-76
2023/04/13 04:02:53;;;;;;;;;;;;;;;6.90;70.77;99526.84;5070378;28;1900;-76
2023/04/13 04:05:20;;;;;;;;;;;;;;;6.90;70.64;99524.16;5069062;28;1707;-78
2023/04/13 04:07:46;;;;;;;;;;;;;;;6.90;70.66;99522.28;5075999;28;1971;-78
2023/04/13 04:10:13;;;;;;;;;;;;;;;6.89;70.68;99509.97;5070848;28;3822;-79
2023/04/13 04:12:39;;;;;;;;;;;;;;;6.89;70.64;99523.34;5071705;28;1635;-78
2023/04/13 04:15:06;;;;;;;;;;;;;;;6.88;70.61;99519.00;5049794;28;2401;-78
2023/04/13 04:17:33;;;;;;;;;;;;;;;6.90;70.22;99527.66;5051070;28;2126;-78
2023/04/13 04:19:59;;;;;;;;;;;;;;;6.88;70.49;99521.69;5069204;28;1707;-79
2023/04/13 04:22:28;;;;;;;;;;;;;;;6.87;70.27;99514.69;5065292;28;2444;-79
2023/04/13 04:24:57;;;;;;;;;;;;;;;6.88;70.60;99515.50;5047748;28;1767;-78
2023/04/13 04:27:25;;;;;;;;;;;;;;;6.88;70.53;99512.84;5069745;28;1819;-78
2023/04/13 04:29:51;;;;;;;;;;;;;;;6.87;70.43;99520.06;5040853;28;2150;-79
2023/04/13 04:32:18;;;;;;;;;;;;;;;6.87;70.54;99512.03;5072094;28;1897;-78
2023/04/13 04:34:45;;;;;;;;;;;;;;;6.87;70.55;99522.72;5064134;28;1787;-79
2023/04/13 04:37:12;;;;;;;;;;;;;;;6.87;70.55;99511.22;5062763;28;1949;-78
2023/04/13 04:39:43;;;;;;;;;;;;;;;6.87;70.22;99513.88;5065839;28;1905;-77
2023/04/13 04:42:10;;;;;;;;;;;;;;;6.87;70.51;99513.88;5070707;28;1758;-78
2023/04/13 04:44:36;;;;;;;;;;;;;;;6.87;70.43;99513.88;5067052;28;1722;-77
2023/04/13 04:47:03;;;;;;;;;;;;;;;6.86;70.16;99522.97;5070645;28;1731;-78
2023/04/13 04:49:29;;;;;;;;;;;;;;;6.87;70.52;99521.91;5053097;28;2177;-77
2023/04/13 04:51:56;;;;;;;;;;;;;;;6.85;70.49;99506.06;5071610;28;1916;-79
2023/04/13 04:54:22;;;;;;;;;;;;;;;6.86;70.52;99520.28;5068523;28;4912;-78
2023/04/13 04:56:50;;;;;;;;;;;;;;;6.86;70.54;99520.28;5080751;28;3788;-79
2023/04/13 04:59:16;;;;;;;;;;;;;;;6.84;70.58;99515.16;5076477;28;2617;-78
2023/04/13 05:01:45;;;;;;;;;;;;;;;6.83;70.36;99519.69;5078820;28;2216;-78
2023/04/13 05:04:11;;;;;;;;;;;;;;;6.84;70.16;99520.50;5071020;28;2153;-78
2023/04/13 05:06:40;;;;;;;;;;;;;;;6.85;70.33;99511.41;5083499;28;2235;-79
2023/04/13 05:09:07;;;;;;;;;;;;;;;6.85;70.59;99505.25;5083553;28;1986;-79
2023/04/13 05:11:34;;;;;;;;;;;;;;;6.84;70.05;99507.13;5066888;28;3428;-78
2023/04/13 05:14:01;;;;;;;;;;;;;;;6.83;70.05;99503.63;5061571;28;2197;-78
2023/04/13 05:16:29;;;;;;;;;;;;;;;6.83;70.40;99500.94;5080170;28;2036;-77
2023/04/13 05:18:56;;;;;;;;;;;;;;;6.82;70.11;99499.31;5080756;28;2155;-76
2023/04/13 05:21:22;;;;;;;;;;;;;;;6.83;70.43;99500.94;5073774;28;1892;-76
2023/04/13 05:23:49;;;;;;;;;;;;;;;6.83;70.24;99503.63;5081605;28;2224;-76
2023/04/13 05:26:16;;;;;;;;;;;;;;;6.82;70.33;99493.97;5063546;28;1700;-76
2023/04/13 05:28:42;;;;;;;;;;;;;;;6.82;69.99;99493.97;5078981;28;3616;-77
2023/04/13 05:31:09;;;;;;;;;;;;;;;6.82;70.07;99488.63;5080035;28;2108;-77
2023/04/13 05:33:36;;;;;;;;;;;;;;;6.81;70.08;99497.66;5066527;28;1608;-77
2023/04/13 05:36:03;;;;;;;;;;;;;;;6.82;70.30;99501.16;5084583;28;1640;-77
2023/04/13 05:38:29;;;;;;;;;;;;;;;6.82;70.22;99506.50;5084057;28;2164;-77
2023/04/13 05:40:56;;;;;;;;;;;;;;;6.82;70.30;99501.16;5083690;28;960;-76
2023/04/13 05:43:23;;;;;;;;;;;;;;;6.81;70.29;99502.22;5068494;28;1995;-77
2023/04/13 05:45:49;;;;;;;;;;;;;;;6.82;70.30;99493.13;5066904;28;2181;-77
2023/04/13 05:48:19;;;;;;;;;;;;;;;6.81;70.11;99488.81;5086465;28;1706;-78
2023/04/13 05:50:46;;;;;;;;;;;;;;;6.80;70.35;99488.00;5090355;28;2105;-77
2023/04/13 05:53:12;;;;;;;;;;;;;;;6.81;70.20;99486.97;5087618;28;2145;-78
2023/04/13 05:55:39;;;;;;;;;;;;;;;6.82;70.29;99501.16;5085235;28;1664;-77
2023/04/13 05:58:07;;;;;;;;;;;;;;;6.82;69.86;99493.13;5082703;28;3656;-78
2023/04/13 06:00:34;;;;;;;;;;;;;;;6.81;70.10;99483.47;5053893;28;4452;-81
2023/04/13 06:03:01;;;;;;;;;;;;;;;6.80;70.28;99488.00;5075578;28;3097;-77
2023/04/13 06:05:28;;;;;;;;;;;;;;;6.81;70.25;99494.19;5071404;28;3123;-79
2023/04/13 06:07:55;;;;;;;;;;;;;;;6.80;69.93;99479.97;5079114;28;2093;-78
2023/04/13 06:10:21;;;;;;;;;;;;;;;6.80;69.88;99487.19;5068774;28;1984;-79
2023/04/13 06:12:49;;;;;;;;;;;;;;;6.80;70.26;99496.03;5079827;28;2387;-78
2023/04/13 06:15:17;;;;;;;;;;;;;;;6.79;70.21;99483.72;5067837;28;2148;-81
2023/04/13 06:17:43;;;;;;;;;;;;;;;6.80;70.04;99498.72;5080059;28;3403;-79
2023/04/13 06:20:10;;;;;;;;;;;;;;;6.79;70.29;99494.41;5079839;28;2179;-78
2023/04/13 06:22:36;;;;;;;;;;;;;;;6.79;70.12;99486.38;5084437;28;2096;-79
2023/04/13 06:25:03;;;;;;;;;;;;;;;6.79;70.16;99482.88;5073670;28;1636;-79
2023/04/13 06:27:32;;;;;;;;;;;;;;;6.80;70.00;99488.00;5074925;28;1729;-77
2023/04/13 06:30:00;;;;;;;;;;;;;;;6.79;70.07;99475.69;5074749;28;1908;-77
2023/04/13 06:32:26;;;;;;;;;;;;;;;6.79;70.03;99482.88;5075274;28;1985;-77
2023/04/13 06:34:53;;;;;;;;;;;;;;;6.79;69.98;99486.38;5079606;28;2057;-78
2023/04/13 06:37:19;;;;;;;;;;;;;;;6.79;69.99;99485.53;5073017;28;2106;-77
2023/04/13 06:39:46;;;;;;;;;;;;;;;6.77;69.92;99476.94;5073336;28;2050;-78
2023/04/13 06:42:14;;;;;;;;;;;;;;;6.77;70.01;99482.28;5074826;28;1902;-76
2023/04/13 06:44:41;;;;;;;;;;;;;;;6.78;69.80;99484.72;5056894;28;1633;-76
2023/04/13 06:47:07;;;;;;;;;;;;;;;6.77;70.05;99479.63;5073922;28;2086;-78
2023/04/13 06:49:34;;;;;;;;;;;;;;;6.78;69.87;99495.44;5074812;28;2315;-77
2023/04/13 06:52:01;;;;;;;;;;;;;;;6.77;70.13;99484.97;5055589;28;1719;-76
2023/04/13 06:54:27;;;;;;;;;;;;;;;6.77;70.06;99493.00;5072594;28;1744;-76
2023/04/13 06:56:55;;;;;;;;;;;;;;;6.77;69.74;99493.00;5076781;28;1708;-77
2023/04/13 06:59:21;;;;;;;;;;;;;;;6.77;70.12;99487.63;5067893;28;1917;-76
2023/04/13 07:01:48;;;;;;;;;;;;;;;6.77;70.15;99484.97;5071646;28;5051;-79
2023/04/13 07:04:14;;;;;;;;;;;;;;;6.77;69.82;99503.69;5056587;28;2125;-77
2023/04/13 07:06:41;;;;;;;;;;;;;;;6.80;74.12;99496.03;5073550;28;1790;-76
2023/04/13 07:09:07;;;;;;;;;;;;;;;6.78;71.61;99492.75;5074509;28;2018;-77
2023/04/13 07:11:34;;;;;;;;;;;;;;;6.77;71.58;99501.03;5073932;28;1599;-75
2023/04/13 07:14:00;;;;;;;;;;;;;;;6.77;71.45;99501.84;5071062;28;1708;-79
2023/04/13 07:16:27;;;;;;;;;;;;;;;6.77;71.04;99501.03;5068290;28;1793;-76
2023/04/13 07:18:54;;;;;;;;;;;;;;;6.78;70.49;99499.97;5057585;28;4136;-76
2023/04/13 07:21:20;;;;;;;;;;;;;;;6.78;70.62;99500.78;5054082;28;1904;-76
2023/04/13 07:23:47;;;;;;;;;;;;;;;6.76;70.56;99489.47;5061902;28;1691;-77
2023/04/13 07:26:13;;;;;;;;;;;;;;;6.79;70.68;99504.28;5079308;28;2160;-76
2023/04/13 07:28:40;;;;;;;;;;;;;;;6.77;70.29;99487.63;5078391;28;1745;-77
2023/04/13 07:31:07;;;;;;;;;;;;;;;6.77;70.82;99493.81;5075347;28;1907;-77
2023/04/13 07:33:33;;;;;;;;;;;;;;;6.76;70.37;99494.81;5073520;28;1903;-76
2023/04/13 07:36:00;;;;;;;;;;;;;;;6.76;70.66;99500.19;5070749;28;1892;-77
2023/04/13 07:38:26;;;;;;;;;;;;;;;6.77;70.44;99484.97;5052371;28;2189;-77
2023/04/13 07:40:53;;;;;;;;;;;;;;;6.76;70.23;99491.34;5050547;28;1846;-77
2023/04/13 07:43:19;;;;;;;;;;;;;;;6.75;70.59;99495.88;5072661;28;1980;-77
2023/04/13 07:45:46;;;;;;;;;;;;;;;6.76;70.46;99513.56;5063031;28;2555;-78
2023/04/13 07:48:12;;;;;;;;;;;;;;;6.76;70.61;99510.88;5063076;28;1689;-76
2023/04/13 07:50:39;;;;;;;;;;;;;;;6.76;70.63;99510.06;5074969;28;1838;-78
2023/04/13 07:53:06;;;;;;;;;;;;;;;6.76;70.52;99502.84;5074206;28;1787;-77
2023/04/13 07:55:33;;;;;;;;;;;;;;;6.76;70.19;99510.06;5069717;28;1732;-76
2023/04/13 07:57:59;;;;;;;;;;;;;;;6.76;70.53;99502.03;5053726;28;1904;-77
2023/04/13 08:00:26;;;;;;;;;;;;;;;6.76;70.36;99510.06;5073670;28;1906;-77
2023/04/13 08:02:53;;;;;;;;;;;;;;;6.75;70.27;99509.25;5055805;28;4960;-80
2023/04/13 08:05:19;;;;;;;;;;;;;;;6.75;70.14;99506.56;5073545;28;1877;-77
2023/04/13 08:07:47;;;;;;;;;;;;;;;6.76;70.22;99499.38;5058780;28;1876;-78
2023/04/13 08:10:14;;;;;;;;;;;;;;;6.75;70.44;99508.44;5076825;28;1827;-76
2023/04/13 08:12:40;;;;;;;;;;;;;;;6.76;70.36;99520.78;5074136;28;1862;-78
2023/04/13 08:15:08;;;;;;;;;;;;;;;6.76;70.41;99516.22;5073288;28;1692;-78
2023/04/13 08:17:35;;;;;;;;;;;;;;;6.75;69.98;99527.19;5073671;28;1735;-79
2023/04/13 08:20:04;;;;;;;;;;;;;;;6.76;69.98;99534.16;5064791;28;5879;-80
2023/04/13 08:22:31;;;;;;;;;;;;;;;6.75;70.38;99544.03;5075646;28;2171;-80
2023/04/13 08:24:57;;;;;;;;;;;;;;;6.75;69.87;99546.72;5066893;28;2037;-77
2023/04/13 08:27:24;;;;;;;;;;;;;;;6.76;70.22;99550.22;5048183;28;1773;-78
2023/04/13 08:29:51;;;;;;;;;;;;;;;6.75;70.23;99545.91;5048741;28;3717;-77
2023/04/13 08:32:17;;;;;;;;;;;;;;;6.76;70.24;99547.53;5066674;28;3545;-78
2023/04/13 08:34:44;;;;;;;;;;;;;;;6.75;70.14;99552.06;5046654;28;3503;-79
2023/04/13 08:37:14;;;;;;;;;;;;;;;6.75;69.89;99544.03;5077672;28;1771;-80
2023/04/13 08:39:40;;;;;;;;;;;;;;;6.75;69.74;99540.56;5062139;28;1909;-78
2023/04/13 08:42:07;;;;;;;;;;;;;;;6.75;70.19;99553.94;5063479;28;1775;-77
2023/04/13 08:44:34;;;;;;;;;;;;;;;6.76;69.63;99560.91;5060561;28;1817;-79
2023/04/13 08:47:01;;;;;;;;;;;;;;;6.75;70.00;99551.25;5082860;28;4094;-75
2023/04/13 08:49:27;;;;;;;;;;;;;;;6.76;69.96;99558.25;5058824;28;1793;-79
2023/04/13 08:51:54;;;;;;;;;;;;;;;6.76;70.20;99558.25;5059763;28;1722;-78
2023/04/13 08:54:23;;;;;;;;;;;;;;;6.75;70.01;99553.94;5082380;28;1801;-78
2023/04/13 08:56:49;;;;;;;;;;;;;;;6.75;69.91;99564.63;5080652;28;1703;-76
2023/04/13 08:59:16;;;;;;;;;;;;;;;6.76;69.76;99561.72;5077780;28;1961;-78
2023/04/13 09:01:43;;;;;;;;;;;;;;;6.76;69.85;99558.25;5076372;28;2161;-78
2023/04/13 09:04:09;;;;;;;;;;;;;;;6.76;69.98;99566.28;5050183;28;1806;-78
2023/04/13 09:06:36;;;;;;;;;;;;;;;6.75;69.92;99552.06;5070606;28;1869;-78
2023/04/13 09:09:04;;;;;;;;;;;;;;;6.75;69.73;99554.75;5078880;28;1809;-79
2023/04/13 09:11:31;;;;;;;;;;;;;;;6.23;69.58;99468.53;5071763;28;4928;-78
2023/04/13 09:13:57;;;;;;;;;;;;;;;6.76;70.02;99555.56;5077149;28;4270;-78
2023/04/13 09:16:24;;;;;;;;;;;;;;;6.75;70.06;99556.63;5060525;28;3333;-78
2023/04/13 09:18:51;;;;;;;;;;;;;;;6.75;70.02;99556.63;5075080;28;1905;-79
2023/04/13 09:21:18;;;;;;;;;;;;;;;6.74;69.86;99553.13;5076304;28;1672;-78
2023/04/13 09:23:44;;;;;;;;;;;;;;;6.75;69.86;99538.69;5076124;28;1751;-80
2023/04/13 09:26:11;;;;;;;;;;;;;;;6.75;69.83;99536.00;5064911;28;1787;-78
2023/04/13 09:28:37;;;;;;;;;;;;;;;6.75;69.98;99540.56;5075992;28;3446;-79
2023/04/13 09:31:04;;;;;;;;;;;;;;;6.74;70.01;99550.44;5076095;28;1822;-78
2023/04/13 09:33:30;;;;;;;;;;;;;;;6.75;69.83;99557.44;5058325;28;1767;-79
2023/04/13 09:35:57;;;;;;;;;;;;;;;6.75;69.54;99551.25;5077300;28;1681;-78
2023/04/13 09:38:23;;;;;;;;;;;;;;;6.75;69.95;99545.91;5075057;28;1762;-77
2023/04/13 09:40:53;;;;;;;;;;;;;;;6.74;69.86;99526.34;5078374;28;1965;-78
2023/04/13 09:43:19;;;;;;;;;;;;;;;6.75;69.61;99561.97;5077380;28;1866;-78
2023/04/13 09:45:47;;;;;;;;;;;;;;;6.75;70.07;99565.44;5060735;28;1858;-78
2023/04/13 09:48:13;;;;;;;;;;;;;;;6.75;69.91;99556.63;5075180;28;1785;-78
2023/04/13 09:50:40;;;;;;;;;;;;;;;6.76;69.92;99563.59;5075471;28;1802;-78
2023/04/13 09:53:09;;;;;;;;;;;;;;;6.76;69.74;99555.56;5075727;28;1831;-79
2023/04/13 09:55:36;;;;;;;;;;;;;;;6.74;69.55;99538.94;5068863;28;1764;-78
2023/04/13 09:58:03;;;;;;;;;;;;;;;6.75;69.77;99536.00;5061258;28;1739;-78
2023/04/13 10:00:30;;;;;;;;;;;;;;;6.74;69.87;99534.38;5069241;28;1922;-77
2023/04/13 10:03:00;;;;;;;;;;;;;;;6.75;69.56;99541.38;5064988;28;1775;-78
2023/04/13 10:05:28;;;;;;;;;;;;;;;6.74;69.68;99531.72;5065064;28;1771;-78
2023/04/13 10:07:55;;;;;;;;;;;;;;;6.75;69.90;99556.63;5062753;28;1854;-78
2023/04/13 10:10:22;;;;;;;;;;;;;;;6.76;69.86;99571.63;5046027;28;1729;-77
2023/04/13 10:12:48;;;;;;;;;;;;;;;6.75;69.64;99570.81;5074511;28;1821;-80
2023/04/13 10:15:15;;;;;;;;;;;;;;;6.76;69.54;99585.81;5069628;28;5166;-78
2023/04/13 10:17:42;;;;;;;;;;;;;;;6.76;69.86;99585.81;5067574;28;4247;-79
2023/04/13 10:20:12;;;;;;;;;;;;;;;6.76;69.86;99582.31;5067970;28;1977;-77
2023/04/13 10:22:39;;;;;;;;;;;;;;;6.76;69.76;99587.69;5080298;28;3764;-78
2023/04/13 10:25:05;;;;;;;;;;;;;;;6.77;69.89;99584.78;5083695;28;1565;-78
2023/04/13 10:27:34;;;;;;;;;;;;;;;6.76;69.77;99593.84;5062047;28;1732;-79
2023/04/13 10:30:03;;;;;;;;;;;;;;;6.76;69.85;99601.88;5058998;28;1798;-77
2023/04/13 10:32:30;;;;;;;;;;;;;;;6.77;69.81;99608.06;5075212;28;1758;-77
2023/04/13 10:34:57;;;;;;;;;;;;;;;6.77;69.98;99618.78;5074616;28;4453;-79
2023/04/13 10:37:24;;;;;;;;;;;;;;;6.77;69.68;99602.72;5056668;28;1876;-78
2023/04/13 10:39:50;;;;;;;;;;;;;;;6.77;69.44;99597.38;5058146;28;1910;-78
2023/04/13 10:42:17;;;;;;;;;;;;;;;6.77;69.68;99603.53;5078240;28;1722;-78
2023/04/13 10:44:43;;;;;;;;;;;;;;;6.77;69.57;99598.19;5076553;28;1718;-78
2023/04/13 10:47:10;;;;;;;;;;;;;;;6.77;69.77;99597.38;5078833;28;1746;-79
2023/04/13 10:49:37;;;;;;;;;;;;;;;6.78;69.76;99609.69;5071022;28;1719;-78
2023/04/13 10:52:04;;;;;;;;;;;;;;;6.78;69.80;99604.34;5057750;28;1806;-78
2023/04/13 10:54:30;;;;;;;;;;;;;;;6.78;69.60;99604.34;5075131;28;1748;-76
2023/04/13 10:56:57;;;;;;;;;;;;;;;6.78;69.81;99594.44;5077379;28;1803;-78
2023/04/13 10:59:24;;;;;;;;;;;;;;;6.78;69.65;99601.66;5074885;28;3549;-78
2023/04/13 11:01:51;;;;;;;;;;;;;;;6.78;69.93;99596.31;5073531;28;3538;-76
2023/04/13 11:04:18;;;;;;;;;;;;;;;6.77;69.82;99595.50;5057305;28;3658;-77
2023/04/13 11:06:45;;;;;;;;;;;;;;;6.78;69.62;99594.44;5074310;28;1824;-76
2023/04/13 11:09:11;;;;;;;;;;;;;;;6.79;69.94;99600.63;5073687;28;1782;-79
2023/04/13 11:11:39;;;;;;;;;;;;;;;6.78;69.65;99597.13;5076161;28;1794;-78
2023/04/13 11:14:05;;;;;;;;;;;;;;;6.79;69.89;99603.28;5075059;28;1866;-78
2023/04/13 11:16:32;;;;;;;;;;;;;;;6.79;69.70;99609.50;5073867;28;3602;-78
2023/04/13 11:18:58;;;;;;;;;;;;;;;6.80;69.63;99612.97;5073958;28;1934;-79
2023/04/13 11:21:25;;;;;;;;;;;;;;;6.78;69.86;99602.47;5068968;28;5010;-80
2023/04/13 11:23:52;;;;;;;;;;;;;;;6.78;69.62;99597.13;5073863;28;4202;-77
2023/04/13 11:26:19;;;;;;;;;;;;;;;6.79;69.83;99604.16;5075762;28;4272;-79
2023/04/13 11:28:45;;;;;;;;;;;;;;;6.78;69.81;99599.00;5077630;28;2008;-76
2023/04/13 11:31:12;;;;;;;;;;;;;;;6.80;70.09;99607.63;5057249;28;1867;-78
2023/04/13 11:33:39;;;;;;;;;;;;;;;6.80;69.63;99624.50;5073508;28;1818;-78
2023/04/13 11:36:06;;;;;;;;;;;;;;;6.80;69.85;99623.69;5056661;28;1756;-79
2023/04/13 11:38:32;;;;;;;;;;;;;;;6.80;69.73;99629.03;5072740;28;5030;-78
2023/04/13 11:40:59;;;;;;;;;;;;;;;6.79;69.93;99628.22;5071613;28;1983;-78
2023/04/13 11:43:25;;;;;;;;;;;;;;;6.79;69.99;99628.22;5076435;28;1787;-79
2023/04/13 11:45:52;;;;;;;;;;;;;;;6.79;69.89;99622.88;5059549;28;1801;-78
2023/04/13 11:48:19;;;;;;;;;;;;;;;6.79;69.80;99630.91;5075511;28;1788;-78
2023/04/13 11:50:45;;;;;;;;;;;;;;;6.80;69.99;99621.00;5071883;28;1918;-79
2023/04/13 11:53:12;;;;;;;;;;;;;;;6.80;69.93;99627.19;5059190;28;1763;-78
2023/04/13 11:55:39;;;;;;;;;;;;;;;6.80;69.90;99632.53;5065853;28;1792;-78
2023/04/13 11:58:05;;;;;;;;;;;;;;;6.80;69.97;99637.88;5069265;28;1782;-77
2023/04/13 12:00:32;;;;;;;;;;;;;;;6.81;70.13;99646.72;5044962;28;1918;-80
2023/04/13 12:02:59;;;;;;;;;;;;;;;6.80;70.13;99645.09;5037551;28;1733;-77
2023/04/13 12:05:25;;;;;;;;;;;;;;;6.80;70.09;99650.47;5043065;28;1762;-77
2023/04/13 12:07:52;;;;;;;;;;;;;;;6.81;69.89;99646.72;5037332;28;1725;-77
2023/04/13 12:10:18;;;;;;;;;;;;;;;6.81;69.98;99654.75;5044284;28;1808;-78
2023/04/13 12:12:45;;;;;;;;;;;;;;;6.81;70.08;99654.75;5048835;28;2025;-78
2023/04/13 12:15:12;;;;;;;;;;;;;;;6.81;70.02;99657.44;5065684;28;1813;-78
2023/04/13 12:17:39;;;;;;;;;;;;;;;6.83;69.98;99666.09;5064688;28;1943;-79
2023/04/13 12:20:08;;;;;;;;;;;;;;;6.82;70.11;99669.78;5080785;28;1914;-77
2023/04/13 12:22:34;;;;;;;;;;;;;;;6.80;69.76;99672.69;5079763;28;1069;-78
2023/04/13 12:25:01;;;;;;;;;;;;;;;6.81;70.14;99671.63;5075570;28;5275;-78
2023/04/13 12:27:27;;;;;;;;;;;;;;;6.81;69.96;99670.81;5079371;28;1013;-78
2023/04/13 12:29:54;;;;;;;;;;;;;;;6.81;70.01;99665.47;5081744;28;4390;-78
2023/04/13 12:32:20;;;;;;;;;;;;;;;6.80;69.97;99670.00;5082778;28;1192;-78
2023/04/13 12:34:47;;;;;;;;;;;;;;;6.82;69.84;99669.78;5079916;28;1021;-78
2023/04/13 12:37:14;;;;;;;;;;;;;;;6.81;70.00;99674.31;5081205;28;1084;-77
2023/04/13 12:39:40;;;;;;;;;;;;;;;6.81;69.84;99668.97;5081303;28;1971;-77
2023/04/13 12:42:07;;;;;;;;;;;;;;;6.81;70.09;99674.31;5080957;28;4331;-77
2023/04/13 12:44:34;;;;;;;;;;;;;;;6.65;69.71;99648.09;5080742;28;1291;-75
2023/04/13 12:47:00;;;;;;;;;;;;;;;6.82;69.76;99684.00;5079683;28;1669;-76
2023/04/13 12:49:27;;;;;;;;;;;;;;;6.82;70.15;99680.47;5071493;28;1663;-78
2023/04/13 12:51:53;;;;;;;;;;;;;;;6.81;69.86;99682.34;5069067;28;1678;-81
2023/04/13 12:54:20;;;;;;;;;;;;;;;6.83;69.92;99690.16;5061961;28;2112;-78
2023/04/13 12:56:46;;;;;;;;;;;;;;;6.83;69.88;99690.97;5067184;28;2861;-77
2023/04/13 12:59:13;;;;;;;;;;;;;;;6.82;70.04;99692.03;5049402;28;2148;-79
2023/04/13 13:01:39;;;;;;;;;;;;;;;6.82;70.10;99702.75;5067391;28;1918;-78
2023/04/13 13:04:06;;;;;;;;;;;;;;;6.85;70.18;99708.66;5067541;28;2085;-79